createdAt,value
2018-06-10T00:01:03.795Z,38.70
2018-06-10T00:02:08.704Z,38.80
2018-06-10T00:03:13.603Z,38.80
2018-06-10T00:04:18.679Z,38.80
2018-06-10T00:05:23.483Z,38.90
2018-06-10T00:06:28.499Z,38.90
2018-06-10T00:07:33.244Z,38.90
2018-06-10T00:08:37.896Z,39.00
2018-06-10T00:09:42.659Z,38.90
2018-06-10T00:10:47.366Z,39.00
2018-06-10T00:11:52.288Z,39.10
2018-06-10T00:12:57.031Z,39.30
2018-06-10T00:14:01.917Z,39.40
2018-06-10T00:15:06.913Z,39.50
2018-06-10T00:16:11.642Z,40.20
2018-06-10T00:17:16.551Z,39.60
2018-06-10T00:18:21.507Z,39.60
2018-06-10T00:19:26.411Z,39.70
2018-06-10T00:20:31.565Z,39.80
2018-06-10T00:21:36.557Z,39.80
2018-06-10T00:22:41.539Z,39.80
2018-06-10T00:23:46.283Z,39.90
2018-06-10T00:24:51.250Z,40.00
2018-06-10T00:25:56.020Z,40.00
2018-06-10T00:27:00.895Z,40.10
2018-06-10T00:28:05.762Z,40.10
2018-06-10T00:29:10.556Z,40.20
2018-06-10T00:30:15.319Z,40.20
2018-06-10T00:31:20.068Z,40.40
2018-06-10T00:32:25.143Z,40.50
2018-06-10T00:33:30.047Z,40.60
2018-06-10T00:34:34.758Z,40.70
2018-06-10T00:35:39.491Z,40.70
2018-06-10T00:36:44.224Z,40.80
2018-06-10T00:37:49.266Z,40.80
2018-06-10T00:38:54.095Z,40.90
2018-06-10T00:39:59.082Z,41.00
2018-06-10T00:41:04.108Z,41.00
2018-06-10T00:42:08.980Z,41.00
2018-06-10T00:43:13.653Z,41.10
2018-06-10T00:44:18.691Z,41.20
2018-06-10T00:45:23.692Z,41.20
2018-06-10T00:46:28.549Z,41.30
2018-06-10T00:47:33.434Z,41.30
2018-06-10T00:48:38.282Z,41.30
2018-06-10T00:49:42.982Z,41.40
2018-06-10T00:50:47.730Z,41.50
2018-06-10T00:51:52.507Z,41.50
2018-06-10T00:52:57.500Z,41.70
2018-06-10T00:54:02.558Z,41.70
2018-06-10T00:55:07.617Z,41.70
2018-06-10T00:56:12.281Z,41.80
2018-06-10T00:57:17.193Z,41.80
2018-06-10T00:58:22.027Z,42.00
2018-06-10T00:59:27.120Z,42.00
2018-06-10T01:00:31.915Z,42.10
2018-06-10T01:01:36.723Z,42.20
2018-06-10T01:02:41.708Z,42.30
2018-06-10T01:03:46.532Z,42.30
2018-06-10T01:04:51.571Z,42.50
2018-06-10T01:05:56.632Z,42.50
2018-06-10T01:07:01.698Z,42.60
2018-06-10T01:08:06.524Z,42.60
2018-06-10T01:09:11.534Z,42.60
2018-06-10T01:10:16.526Z,42.70
2018-06-10T01:11:21.620Z,42.70
2018-06-10T01:12:26.497Z,42.80
2018-06-10T01:13:31.435Z,42.90
2018-06-10T01:14:36.460Z,43.00
2018-06-10T01:15:41.394Z,43.10
2018-06-10T01:16:46.156Z,43.10
2018-06-10T01:17:50.886Z,43.20
2018-06-10T01:18:55.801Z,43.20
2018-06-10T01:20:00.758Z,43.20
2018-06-10T01:21:05.611Z,43.20
2018-06-10T01:22:10.197Z,43.20
2018-06-10T01:23:15.228Z,43.30
2018-06-10T01:24:19.823Z,43.30
2018-06-10T01:25:24.764Z,43.30
2018-06-10T01:26:29.450Z,43.40
2018-06-10T01:27:34.256Z,43.40
2018-06-10T01:28:39.028Z,43.50
2018-06-10T01:29:43.721Z,43.60
2018-06-10T01:30:48.446Z,43.70
2018-06-10T01:31:53.582Z,43.70
2018-06-10T01:32:58.445Z,43.70
2018-06-10T01:34:03.292Z,43.70
2018-06-10T01:35:08.052Z,43.80
2018-06-10T01:36:12.849Z,43.80
2018-06-10T01:37:17.763Z,44.00
2018-06-10T01:38:22.534Z,44.00
2018-06-10T01:39:27.403Z,44.00
2018-06-10T01:40:32.145Z,44.10
2018-06-10T01:41:37.027Z,44.10
2018-06-10T01:42:41.805Z,44.10
2018-06-10T01:43:46.784Z,44.10
2018-06-10T01:44:51.804Z,44.20
2018-06-10T01:45:56.695Z,44.30
2018-06-10T01:47:01.370Z,44.30
2018-06-10T01:48:06.294Z,44.40
2018-06-10T01:49:11.162Z,44.40
2018-06-10T01:50:15.963Z,44.50
2018-06-10T01:51:20.649Z,44.50
2018-06-10T01:52:25.368Z,44.60
2018-06-10T01:53:30.162Z,44.60
2018-06-10T01:54:34.998Z,44.70
2018-06-10T01:55:39.652Z,44.70
2018-06-10T01:56:44.583Z,44.70
2018-06-10T01:57:49.275Z,44.80
2018-06-10T01:58:54.203Z,44.80
2018-06-10T01:59:59.179Z,44.80
2018-06-10T02:01:04.048Z,44.90
2018-06-10T02:02:09.031Z,44.90
2018-06-10T02:03:14.124Z,45.00
2018-06-10T02:04:18.952Z,45.00
2018-06-10T02:05:23.985Z,45.00
2018-06-10T02:06:29.137Z,45.00
2018-06-10T02:07:34.061Z,45.00
2018-06-10T02:08:38.934Z,45.10
2018-06-10T02:09:43.991Z,45.10
2018-06-10T02:10:48.913Z,45.20
2018-06-10T02:11:53.999Z,45.20
2018-06-10T02:12:58.838Z,45.20
2018-06-10T02:14:03.986Z,45.20
2018-06-10T02:15:09.091Z,45.20
2018-06-10T02:16:14.271Z,45.30
2018-06-10T02:17:18.979Z,45.30
2018-06-10T02:18:23.989Z,45.40
2018-06-10T02:19:28.753Z,45.40
2018-06-10T02:20:33.849Z,45.40
2018-06-10T02:21:38.826Z,45.40
2018-06-10T02:22:43.804Z,45.40
2018-06-10T02:23:48.915Z,45.50
2018-06-10T02:24:53.599Z,45.40
2018-06-10T02:25:58.504Z,45.50
2018-06-10T02:27:03.336Z,45.60
2018-06-10T02:28:08.168Z,45.70
2018-06-10T02:29:13.082Z,45.70
2018-06-10T02:30:18.042Z,45.80
2018-06-10T02:31:23.151Z,45.70
2018-06-10T02:32:28.199Z,45.70
2018-06-10T02:33:32.869Z,45.80
2018-06-10T02:34:37.555Z,45.80
2018-06-10T02:35:42.522Z,45.80
2018-06-10T02:36:47.432Z,45.90
2018-06-10T02:37:52.075Z,45.80
2018-06-10T02:38:56.657Z,45.80
2018-06-10T02:40:01.598Z,45.80
2018-06-10T02:41:06.463Z,45.80
2018-06-10T02:42:11.307Z,45.90
2018-06-10T02:43:16.174Z,45.90
2018-06-10T02:44:21.218Z,46.00
2018-06-10T02:45:26.162Z,45.90
2018-06-10T02:46:30.805Z,45.90
2018-06-10T02:47:35.406Z,45.90
2018-06-10T02:48:40.301Z,46.00
2018-06-10T02:49:45.090Z,46.00
2018-06-10T02:50:49.973Z,46.00
2018-06-10T02:51:54.627Z,45.90
2018-06-10T02:52:59.793Z,45.90
2018-06-10T02:54:04.701Z,46.00
2018-06-10T02:55:09.731Z,45.90
2018-06-10T02:56:14.769Z,46.00
2018-06-10T02:57:19.924Z,46.00
2018-06-10T02:58:25.086Z,46.00
2018-06-10T02:59:29.936Z,46.00
2018-06-10T03:00:34.841Z,46.00
2018-06-10T03:01:39.681Z,46.10
2018-06-10T03:02:44.547Z,46.10
2018-06-10T03:03:49.638Z,46.00
2018-06-10T03:04:54.552Z,46.10
2018-06-10T03:05:59.720Z,46.00
2018-06-10T03:07:04.988Z,46.00
2018-06-10T03:08:09.861Z,46.00
2018-06-10T03:09:14.778Z,46.00
2018-06-10T03:10:19.749Z,46.10
2018-06-10T03:11:24.700Z,46.10
2018-06-10T03:12:29.456Z,46.10
2018-06-10T03:13:34.368Z,46.10
2018-06-10T03:14:39.531Z,46.00
2018-06-10T03:15:44.465Z,46.10
2018-06-10T03:16:49.308Z,46.10
2018-06-10T03:17:54.211Z,46.00
2018-06-10T03:18:59.129Z,46.10
2018-06-10T03:20:04.131Z,46.10
2018-06-10T03:21:09.090Z,46.10
2018-06-10T03:22:13.838Z,46.10
2018-06-10T03:23:18.701Z,46.10
2018-06-10T03:24:23.603Z,46.10
2018-06-10T03:25:28.269Z,46.00
2018-06-10T03:26:33.411Z,46.10
2018-06-10T03:27:38.185Z,46.00
2018-06-10T03:28:42.808Z,46.10
2018-06-10T03:29:47.840Z,46.00
2018-06-10T03:30:52.784Z,46.00
2018-06-10T03:31:57.514Z,46.60
2018-06-10T03:33:02.436Z,46.00
2018-06-10T03:34:07.226Z,46.00
2018-06-10T03:35:12.379Z,46.10
2018-06-10T03:36:17.070Z,46.00
2018-06-10T03:37:22.135Z,46.10
2018-06-10T03:38:27.085Z,46.10
2018-06-10T03:39:32.071Z,46.00
2018-06-10T03:40:36.930Z,46.00
2018-06-10T03:41:41.974Z,46.00
2018-06-10T03:42:46.702Z,46.00
2018-06-10T03:43:51.800Z,46.00
2018-06-10T03:44:56.428Z,46.00
2018-06-10T03:46:01.492Z,46.00
2018-06-10T03:47:06.274Z,46.00
2018-06-10T03:48:11.327Z,46.10
2018-06-10T03:49:16.059Z,45.90
2018-06-10T03:50:20.967Z,45.90
2018-06-10T03:51:26.143Z,45.90
2018-06-10T03:52:30.971Z,45.90
2018-06-10T03:53:35.971Z,45.90
2018-06-10T03:54:40.611Z,45.90
2018-06-10T03:55:45.417Z,45.90
2018-06-10T03:56:50.144Z,46.10
2018-06-10T03:57:55.120Z,45.90
2018-06-10T03:58:59.824Z,46.00
2018-06-10T04:00:04.541Z,46.00
2018-06-10T04:01:09.715Z,46.10
2018-06-10T04:02:14.389Z,46.10
2018-06-10T04:03:19.545Z,46.20
2018-06-10T04:04:24.452Z,46.10
2018-06-10T04:05:29.565Z,46.20
2018-06-10T04:06:34.431Z,46.20
2018-06-10T04:07:39.435Z,46.30
2018-06-10T04:08:44.416Z,46.30
2018-06-10T04:09:49.127Z,46.40
2018-06-10T04:10:54.049Z,46.40
2018-06-10T04:11:59.152Z,46.50
2018-06-10T04:13:04.048Z,46.40
2018-06-10T04:14:08.767Z,46.50
2018-06-10T04:15:13.875Z,46.50
2018-06-10T04:16:18.927Z,46.60
2018-06-10T04:17:23.935Z,46.60
2018-06-10T04:18:28.914Z,46.60
2018-06-10T04:19:33.896Z,46.60
2018-06-10T04:20:38.809Z,46.60
2018-06-10T04:21:43.885Z,46.60
2018-06-10T04:22:48.777Z,46.70
2018-06-10T04:23:53.616Z,46.70
2018-06-10T04:24:58.606Z,46.70
2018-06-10T04:26:03.418Z,46.60
2018-06-10T04:27:08.204Z,46.70
2018-06-10T04:28:13.116Z,46.80
2018-06-10T04:29:18.102Z,46.80
2018-06-10T04:30:22.873Z,46.80
2018-06-10T04:31:27.691Z,46.90
2018-06-10T04:32:32.700Z,46.90
2018-06-10T04:33:37.397Z,46.80
2018-06-10T04:34:42.392Z,47.00
2018-06-10T04:35:47.367Z,46.90
2018-06-10T04:36:52.142Z,46.90
2018-06-10T04:37:57.081Z,46.90
2018-06-10T04:39:01.903Z,46.90
2018-06-10T04:40:06.982Z,46.90
2018-06-10T04:41:11.721Z,46.80
2018-06-10T04:42:16.681Z,46.80
2018-06-10T04:43:21.687Z,46.90
2018-06-10T04:44:26.673Z,46.70
2018-06-10T04:45:31.418Z,46.70
2018-06-10T04:46:36.145Z,46.80
2018-06-10T04:47:41.162Z,46.80
2018-06-10T04:48:46.121Z,46.80
2018-06-10T04:49:50.929Z,46.80
2018-06-10T04:50:55.790Z,46.80
2018-06-10T04:52:00.612Z,46.80
2018-06-10T04:53:05.687Z,46.90
2018-06-10T04:54:10.278Z,47.00
2018-06-10T04:55:15.142Z,47.00
2018-06-10T04:56:20.198Z,47.00
2018-06-10T04:57:25.165Z,47.00
2018-06-10T04:58:29.941Z,47.00
2018-06-10T04:59:34.852Z,47.00
2018-06-10T05:00:39.812Z,47.00
2018-06-10T05:01:44.738Z,47.10
2018-06-10T05:02:49.639Z,47.20
2018-06-10T05:03:54.546Z,47.20
2018-06-10T05:04:59.373Z,47.20
2018-06-10T05:06:04.370Z,47.30
2018-06-10T05:07:09.410Z,47.40
2018-06-10T05:08:14.320Z,47.30
2018-06-10T05:09:19.294Z,47.30
2018-06-10T05:10:24.101Z,47.30
2018-06-10T05:11:29.041Z,47.30
2018-06-10T05:12:34.007Z,47.40
2018-06-10T05:13:38.941Z,47.40
2018-06-10T05:14:44.039Z,47.50
2018-06-10T05:15:49.035Z,47.60
2018-06-10T05:16:54.002Z,47.70
2018-06-10T05:17:58.995Z,47.70
2018-06-10T05:19:04.021Z,47.70
2018-06-10T05:20:08.775Z,47.60
2018-06-10T05:21:13.565Z,47.60
2018-06-10T05:22:18.439Z,47.50
2018-06-10T05:23:23.474Z,47.50
2018-06-10T05:24:28.379Z,47.40
2018-06-10T05:25:33.368Z,47.40
2018-06-10T05:26:38.398Z,47.40
2018-06-10T05:27:43.328Z,47.40
2018-06-10T05:28:48.169Z,47.50
2018-06-10T05:29:52.939Z,47.50
2018-06-10T05:30:57.838Z,47.50
2018-06-10T05:32:02.838Z,47.50
2018-06-10T05:33:07.612Z,47.60
2018-06-10T05:34:12.695Z,47.60
2018-06-10T05:35:17.617Z,47.70
2018-06-10T05:36:22.471Z,47.60
2018-06-10T05:37:27.343Z,47.60
2018-06-10T05:38:32.177Z,47.70
2018-06-10T05:39:37.020Z,47.70
2018-06-10T05:40:41.910Z,47.80
2018-06-10T05:41:46.961Z,47.80
2018-06-10T05:42:52.094Z,47.90
2018-06-10T05:43:56.950Z,47.90
2018-06-10T05:45:01.624Z,48.00
2018-06-10T05:46:06.384Z,48.00
2018-06-10T05:47:11.510Z,48.00
2018-06-10T05:48:16.477Z,48.10
2018-06-10T05:49:21.326Z,48.10
2018-06-10T05:50:26.118Z,48.10
2018-06-10T05:51:31.128Z,48.10
2018-06-10T05:52:36.034Z,48.20
2018-06-10T05:53:41.112Z,48.30
2018-06-10T05:54:46.132Z,49.10
2018-06-10T05:55:51.035Z,48.50
2018-06-10T05:56:55.914Z,48.50
2018-06-10T05:58:00.793Z,48.70
2018-06-10T05:59:05.860Z,48.90
2018-06-10T06:00:10.915Z,49.10
2018-06-10T06:01:15.705Z,49.30
2018-06-10T06:02:20.699Z,49.30
2018-06-10T06:03:25.578Z,49.40
2018-06-10T06:04:30.508Z,49.40
2018-06-10T06:05:35.205Z,49.50
2018-06-10T06:06:40.554Z,49.60
2018-06-10T06:07:45.278Z,49.60
2018-06-10T06:08:50.315Z,49.70
2018-06-10T06:09:55.132Z,49.80
2018-06-10T06:11:00.201Z,49.90
2018-06-10T06:12:05.191Z,50.30
2018-06-10T06:13:09.969Z,50.40
2018-06-10T06:14:14.682Z,50.50
2018-06-10T06:15:19.420Z,50.60
2018-06-10T06:16:24.254Z,50.50
2018-06-10T06:17:29.144Z,50.50
2018-06-10T06:18:33.982Z,50.40
2018-06-10T06:19:38.853Z,50.40
2018-06-10T06:20:43.868Z,50.40
2018-06-10T06:21:48.715Z,50.40
2018-06-10T06:22:53.827Z,50.30
2018-06-10T06:23:58.766Z,50.30
2018-06-10T06:25:03.650Z,50.40
2018-06-10T06:26:08.349Z,50.50
2018-06-10T06:27:13.142Z,50.50
2018-06-10T06:28:17.817Z,50.40
2018-06-10T06:29:22.589Z,50.50
2018-06-10T06:30:27.526Z,50.70
2018-06-10T06:31:32.302Z,50.90
2018-06-10T06:32:37.322Z,50.90
2018-06-10T06:33:42.353Z,51.00
2018-06-10T06:34:47.311Z,51.10
2018-06-10T06:35:52.008Z,51.20
2018-06-10T06:36:56.787Z,51.20
2018-06-10T06:38:01.831Z,51.00
2018-06-10T06:39:06.769Z,51.00
2018-06-10T06:40:11.501Z,50.90
2018-06-10T06:41:16.665Z,50.90
2018-06-10T06:42:21.605Z,51.00
2018-06-10T06:43:26.798Z,50.90
2018-06-10T06:44:31.764Z,50.60
2018-06-10T06:45:36.766Z,50.70
2018-06-10T06:46:41.446Z,50.70
2018-06-10T06:47:46.377Z,50.90
2018-06-10T06:48:51.477Z,51.00
2018-06-10T06:49:56.433Z,51.00
2018-06-10T06:51:01.415Z,51.00
2018-06-10T06:52:06.624Z,50.90
2018-06-10T06:53:11.549Z,50.90
2018-06-10T06:54:16.464Z,50.90
2018-06-10T06:55:21.420Z,51.00
2018-06-10T06:56:26.445Z,51.00
2018-06-10T06:57:31.455Z,50.90
2018-06-10T06:58:36.492Z,50.90
2018-06-10T06:58:54.911Z,51.00
2018-06-10T07:00:00.049Z,51.10
2018-06-10T07:01:04.989Z,51.20
2018-06-10T07:02:10.028Z,51.20
2018-06-10T07:03:14.701Z,51.30
2018-06-10T07:04:19.900Z,51.20
2018-06-10T07:05:25.034Z,50.90
2018-06-10T07:06:31.062Z,50.80
2018-06-10T07:07:36.130Z,50.60
2018-06-10T07:08:40.960Z,50.60
2018-06-10T07:09:46.079Z,50.70
2018-06-10T07:10:51.013Z,50.80
2018-06-10T07:11:57.719Z,50.90
2018-06-10T07:13:02.629Z,51.00
2018-06-10T07:14:07.434Z,51.20
2018-06-10T07:15:12.381Z,51.20
2018-06-10T07:16:17.241Z,51.20
2018-06-10T07:17:22.254Z,51.30
2018-06-10T07:18:27.009Z,51.30
2018-06-10T07:19:32.589Z,51.30
2018-06-10T07:20:37.481Z,51.30
2018-06-10T07:21:42.247Z,51.20
2018-06-10T07:22:46.966Z,51.20
2018-06-10T07:23:51.849Z,51.20
2018-06-10T07:24:56.792Z,51.20
2018-06-10T07:26:01.769Z,51.20
2018-06-10T07:27:06.871Z,51.20
2018-06-10T07:28:11.763Z,51.20
2018-06-10T07:29:16.551Z,51.20
2018-06-10T07:30:21.744Z,51.30
2018-06-10T07:31:26.681Z,51.30
2018-06-10T07:32:31.523Z,51.30
2018-06-10T07:33:36.327Z,51.10
2018-06-10T07:34:41.322Z,51.00
2018-06-10T07:35:46.414Z,51.00
2018-06-10T07:36:51.768Z,50.90
2018-06-10T07:37:56.746Z,50.90
2018-06-10T07:39:01.671Z,50.90
2018-06-10T07:40:06.515Z,50.90
2018-06-10T07:41:11.354Z,50.90
2018-06-10T07:42:16.227Z,50.80
2018-06-10T07:43:21.191Z,50.70
2018-06-10T07:44:26.034Z,50.60
2018-06-10T07:45:30.900Z,50.50
2018-06-10T07:46:35.729Z,50.60
2018-06-10T07:47:40.537Z,50.50
2018-06-10T07:48:45.431Z,50.50
2018-06-10T07:49:50.320Z,50.50
2018-06-10T07:50:55.085Z,50.60
2018-06-10T07:52:00.107Z,50.70
2018-06-10T07:53:05.031Z,50.80
2018-06-10T07:54:10.226Z,50.80
2018-06-10T07:55:15.370Z,50.90
2018-06-10T07:56:20.161Z,50.80
2018-06-10T07:57:25.246Z,50.80
2018-06-10T07:58:30.326Z,50.80
2018-06-10T07:59:35.356Z,50.60
2018-06-10T08:00:40.083Z,50.60
2018-06-10T08:01:44.917Z,50.50
2018-06-10T08:02:49.985Z,50.50
2018-06-10T08:03:54.935Z,50.50
2018-06-10T08:05:00.109Z,50.60
2018-06-10T08:06:05.356Z,50.80
2018-06-10T08:07:10.552Z,50.90
2018-06-10T08:08:15.445Z,50.90
2018-06-10T08:09:20.425Z,50.90
2018-06-10T08:10:25.596Z,50.80
2018-06-10T08:11:30.611Z,50.80
2018-06-10T08:12:35.743Z,50.80
2018-06-10T08:13:40.788Z,50.90
2018-06-10T08:14:45.898Z,50.90
2018-06-10T08:15:51.006Z,50.90
2018-06-10T08:16:55.980Z,50.90
2018-06-10T08:18:01.008Z,50.90
2018-06-10T08:19:05.997Z,50.90
2018-06-10T08:20:11.055Z,50.70
2018-06-10T08:21:15.901Z,50.60
2018-06-10T08:22:20.725Z,50.30
2018-06-10T08:23:25.470Z,50.20
2018-06-10T08:24:30.324Z,50.10
2018-06-10T08:25:35.006Z,50.00
2018-06-10T08:26:39.884Z,49.90
2018-06-10T08:27:45.033Z,49.90
2018-06-10T08:28:49.822Z,49.90
2018-06-10T08:29:54.756Z,50.60
2018-06-10T08:30:59.427Z,49.90
2018-06-10T08:32:04.316Z,49.90
2018-06-10T08:33:09.220Z,50.00
2018-06-10T08:34:14.093Z,50.00
2018-06-10T08:35:19.208Z,50.00
2018-06-10T08:36:24.109Z,50.10
2018-06-10T08:37:28.918Z,50.20
2018-06-10T08:38:33.760Z,50.40
2018-06-10T08:39:38.865Z,50.50
2018-06-10T08:40:43.762Z,50.60
2018-06-10T08:41:48.621Z,50.70
2018-06-10T08:42:53.300Z,50.90
2018-06-10T08:43:58.202Z,50.90
2018-06-10T08:45:03.123Z,51.00
2018-06-10T08:46:07.894Z,50.90
2018-06-10T08:47:12.711Z,50.80
2018-06-10T08:48:17.718Z,50.80
2018-06-10T08:49:22.709Z,50.70
2018-06-10T08:50:27.645Z,50.70
2018-06-10T08:51:32.672Z,50.70
2018-06-10T08:52:37.505Z,50.80
2018-06-10T08:53:42.397Z,50.80
2018-06-10T08:54:47.158Z,50.90
2018-06-10T08:55:52.052Z,50.90
2018-06-10T08:56:56.798Z,51.00
2018-06-10T08:58:01.404Z,51.00
2018-06-10T08:59:06.389Z,51.00
2018-06-10T09:00:11.553Z,50.90
2018-06-10T09:01:16.208Z,50.90
2018-06-10T09:02:21.569Z,51.00
2018-06-10T09:03:27.013Z,51.00
2018-06-10T09:04:34.741Z,51.00
2018-06-10T09:05:39.670Z,51.10
2018-06-10T09:06:44.408Z,51.10
2018-06-10T09:07:49.326Z,51.20
2018-06-10T09:08:54.142Z,51.40
2018-06-10T09:09:58.974Z,51.50
2018-06-10T09:11:03.834Z,51.50
2018-06-10T09:12:08.848Z,51.60
2018-06-10T09:13:13.589Z,51.80
2018-06-10T09:14:18.888Z,51.90
2018-06-10T09:15:23.767Z,51.90
2018-06-10T09:16:28.837Z,51.80
2018-06-10T09:17:33.922Z,51.80
2018-06-10T09:18:38.785Z,51.70
2018-06-10T09:19:43.870Z,51.80
2018-06-10T09:20:48.559Z,51.90
2018-06-10T09:21:53.410Z,51.90
2018-06-10T09:22:58.502Z,52.00
2018-06-10T09:24:03.268Z,52.00
2018-06-10T09:25:08.318Z,52.00
2018-06-10T09:26:13.287Z,52.10
2018-06-10T09:27:18.165Z,52.00
2018-06-10T09:28:23.013Z,52.10
2018-06-10T09:29:27.807Z,52.10
2018-06-10T09:30:32.676Z,52.20
2018-06-10T09:31:37.541Z,52.30
2018-06-10T09:32:42.198Z,52.30
2018-06-10T09:33:47.196Z,52.40
2018-06-10T09:34:52.139Z,52.30
2018-06-10T09:35:57.030Z,52.40
2018-06-10T09:37:02.280Z,52.40
2018-06-10T09:38:07.223Z,52.40
2018-06-10T09:39:12.231Z,52.40
2018-06-10T09:40:16.982Z,52.40
2018-06-10T09:41:21.684Z,52.50
2018-06-10T09:42:26.462Z,52.30
2018-06-10T09:43:31.180Z,52.30
2018-06-10T09:44:36.134Z,52.30
2018-06-10T09:45:40.932Z,52.40
2018-06-10T09:46:45.896Z,52.40
2018-06-10T09:47:50.880Z,52.40
2018-06-10T09:48:55.907Z,52.60
2018-06-10T09:50:00.812Z,52.70
2018-06-10T09:51:05.736Z,52.60
2018-06-10T09:52:10.522Z,52.50
2018-06-10T09:53:15.636Z,52.60
2018-06-10T09:54:20.616Z,52.60
2018-06-10T09:55:25.523Z,52.70
2018-06-10T09:56:30.286Z,52.70
2018-06-10T09:57:35.123Z,52.70
2018-06-10T09:58:40.318Z,52.90
2018-06-10T09:59:45.111Z,52.90
2018-06-10T10:00:50.145Z,53.00
2018-06-10T10:03:16.480Z,53.00
2018-06-10T10:04:21.159Z,53.10
2018-06-10T10:05:26.292Z,53.10
2018-06-10T10:06:30.989Z,53.10
2018-06-10T10:07:35.717Z,53.10
2018-06-10T10:08:40.625Z,53.00
2018-06-10T10:09:45.548Z,53.00
2018-06-10T10:10:50.312Z,53.10
2018-06-10T10:11:55.230Z,53.20
2018-06-10T10:12:59.965Z,53.30
2018-06-10T10:14:04.857Z,53.40
2018-06-10T10:15:09.753Z,53.40
2018-06-10T10:16:14.361Z,53.50
2018-06-10T10:17:19.202Z,53.50
2018-06-10T10:18:24.134Z,53.50
2018-06-10T10:19:29.013Z,53.50
2018-06-10T10:20:33.803Z,53.60
2018-06-10T10:21:38.746Z,53.70
2018-06-10T10:22:43.796Z,53.70
2018-06-10T10:23:49.102Z,53.70
2018-06-10T10:24:54.176Z,53.80
2018-06-10T10:25:59.286Z,53.80
2018-06-10T10:27:04.261Z,53.80
2018-06-10T10:28:09.178Z,53.80
2018-06-10T10:29:14.278Z,53.80
2018-06-10T10:30:19.264Z,54.00
2018-06-10T10:31:24.141Z,54.00
2018-06-10T10:32:28.857Z,54.00
2018-06-10T10:33:33.794Z,54.00
2018-06-10T10:34:38.937Z,54.10
2018-06-10T10:35:43.930Z,54.10
2018-06-10T10:36:49.128Z,54.30
2018-06-10T10:37:53.990Z,54.40
2018-06-10T10:38:58.798Z,54.40
2018-06-10T10:40:03.687Z,54.50
2018-06-10T10:41:08.723Z,54.50
2018-06-10T10:42:13.875Z,54.50
2018-06-10T10:43:18.762Z,54.40
2018-06-10T10:44:23.639Z,54.50
2018-06-10T10:45:28.703Z,54.40
2018-06-10T10:46:33.323Z,54.40
2018-06-10T10:47:37.905Z,54.40
2018-06-10T10:48:42.522Z,54.30
2018-06-10T10:49:47.579Z,54.30
2018-06-10T10:50:52.471Z,54.20
2018-06-10T10:51:57.338Z,54.10
2018-06-10T10:53:02.374Z,54.10
2018-06-10T10:54:07.194Z,53.90
2018-06-10T10:55:12.605Z,53.90
2018-06-10T10:56:17.217Z,53.90
2018-06-10T10:57:22.212Z,53.90
2018-06-10T10:58:27.028Z,53.90
2018-06-10T10:59:31.877Z,53.80
2018-06-10T11:00:36.885Z,53.80
2018-06-10T11:01:41.542Z,53.90
2018-06-10T11:02:46.395Z,54.40
2018-06-10T11:03:51.085Z,53.80
2018-06-10T11:04:55.773Z,53.80
2018-06-10T11:06:00.818Z,53.70
2018-06-10T11:07:05.892Z,53.70
2018-06-10T11:08:10.656Z,53.70
2018-06-10T11:09:15.643Z,53.70
2018-06-10T11:10:20.655Z,53.70
2018-06-10T11:11:25.592Z,53.70
2018-06-10T11:12:30.597Z,53.70
2018-06-10T11:13:35.525Z,53.60
2018-06-10T11:14:40.807Z,53.80
2018-06-10T11:15:45.716Z,53.70
2018-06-10T11:16:50.636Z,53.80
2018-06-10T11:17:55.677Z,53.80
2018-06-10T11:19:00.626Z,53.70
2018-06-10T11:20:05.331Z,53.70
2018-06-10T11:21:10.555Z,53.60
2018-06-10T11:22:15.277Z,53.60
2018-06-10T11:23:20.169Z,53.60
2018-06-10T11:24:24.996Z,53.50
2018-06-10T11:25:29.957Z,53.40
2018-06-10T11:26:35.196Z,53.30
2018-06-10T11:27:40.212Z,53.30
2018-06-10T11:28:45.350Z,53.20
2018-06-10T11:29:50.670Z,53.20
2018-06-10T11:30:55.622Z,53.10
2018-06-10T11:32:00.720Z,53.00
2018-06-10T11:33:05.826Z,53.00
2018-06-10T11:34:10.897Z,53.00
2018-06-10T11:35:15.570Z,53.30
2018-06-10T11:36:20.438Z,53.00
2018-06-10T11:37:25.512Z,52.90
2018-06-10T11:38:30.441Z,52.90
2018-06-10T11:39:35.086Z,52.90
2018-06-10T11:40:40.128Z,53.00
2018-06-10T11:41:45.210Z,52.80
2018-06-10T11:42:50.061Z,52.80
2018-06-10T11:43:55.124Z,52.90
2018-06-10T11:45:00.009Z,52.90
2018-06-10T11:46:05.064Z,52.90
2018-06-10T11:47:10.160Z,53.00
2018-06-10T11:48:15.036Z,53.00
2018-06-10T11:49:20.130Z,53.00
2018-06-10T11:50:25.161Z,53.00
2018-06-10T11:51:30.322Z,53.00
2018-06-10T11:52:35.069Z,53.00
2018-06-10T11:53:39.786Z,53.10
2018-06-10T11:54:44.914Z,53.00
2018-06-10T11:55:49.890Z,53.00
2018-06-10T11:56:54.553Z,53.00
2018-06-10T11:57:59.445Z,53.10
2018-06-10T11:59:07.718Z,53.00
2018-06-10T12:00:13.563Z,53.10
2018-06-10T12:01:18.922Z,53.20
2018-06-10T12:02:25.001Z,53.10
2018-06-10T12:03:29.893Z,53.20
2018-06-10T12:04:35.242Z,53.20
2018-06-10T12:05:40.131Z,53.20
2018-06-10T12:06:45.269Z,53.20
2018-06-10T12:07:50.051Z,53.20
2018-06-10T12:08:55.082Z,53.20
2018-06-10T12:10:00.237Z,53.30
2018-06-10T12:11:05.329Z,53.20
2018-06-10T12:12:10.280Z,53.20
2018-06-10T12:13:15.373Z,53.20
2018-06-10T12:14:20.669Z,53.20
2018-06-10T12:15:25.685Z,53.10
2018-06-10T12:16:30.808Z,53.20
2018-06-10T12:17:35.748Z,53.30
2018-06-10T12:18:40.590Z,53.30
2018-06-10T12:19:45.324Z,53.40
2018-06-10T12:20:50.274Z,53.40
2018-06-10T12:21:55.447Z,53.30
2018-06-10T12:23:00.394Z,53.30
2018-06-10T12:24:05.135Z,53.30
2018-06-10T12:25:10.399Z,53.30
2018-06-10T12:26:15.355Z,53.20
2018-06-10T12:27:20.273Z,53.10
2018-06-10T12:28:25.151Z,53.20
2018-06-10T12:29:30.283Z,53.10
2018-06-10T12:30:35.444Z,53.00
2018-06-10T12:31:40.158Z,53.00
2018-06-10T12:32:44.845Z,53.00
2018-06-10T12:33:49.508Z,53.10
2018-06-10T12:34:54.311Z,53.00
2018-06-10T12:35:59.204Z,53.10
2018-06-10T12:37:03.938Z,53.10
2018-06-10T12:38:08.875Z,53.10
2018-06-10T12:39:13.797Z,53.20
2018-06-10T12:40:18.859Z,53.20
2018-06-10T12:41:23.833Z,53.30
2018-06-10T12:42:28.899Z,53.30
2018-06-10T12:43:33.924Z,53.20
2018-06-10T12:44:38.744Z,53.30
2018-06-10T12:45:43.940Z,53.20
2018-06-10T12:46:48.590Z,53.20
2018-06-10T12:47:53.207Z,53.30
2018-06-10T12:48:57.901Z,53.30
2018-06-10T12:50:02.894Z,53.30
2018-06-10T12:51:07.658Z,53.50
2018-06-10T12:52:12.567Z,53.50
2018-06-10T12:53:17.456Z,53.30
2018-06-10T12:54:22.306Z,53.30
2018-06-10T12:55:26.894Z,53.30
2018-06-10T12:56:31.975Z,53.40
2018-06-10T12:57:36.842Z,53.40
2018-06-10T12:58:42.052Z,53.30
2018-06-10T12:59:47.090Z,53.30
2018-06-10T13:00:52.160Z,53.30
2018-06-10T13:01:56.958Z,53.10
2018-06-10T13:03:01.597Z,53.00
2018-06-10T13:04:06.621Z,52.90
2018-06-10T13:05:11.740Z,52.80
2018-06-10T13:06:16.611Z,52.70
2018-06-10T13:07:21.532Z,52.70
2018-06-10T13:08:27.274Z,52.60
2018-06-10T13:09:32.382Z,52.50
2018-06-10T13:10:37.212Z,52.50
2018-06-10T13:11:42.314Z,52.40
2018-06-10T13:12:47.426Z,52.40
2018-06-10T13:13:52.516Z,52.30
2018-06-10T13:14:57.529Z,52.30
2018-06-10T13:16:02.419Z,52.40
2018-06-10T13:17:07.280Z,52.40
2018-06-10T13:18:12.189Z,52.30
2018-06-10T13:19:17.227Z,52.30
2018-06-10T13:20:22.100Z,52.20
2018-06-10T13:21:27.079Z,52.20
2018-06-10T13:22:32.145Z,52.20
2018-06-10T13:23:37.149Z,52.10
2018-06-10T13:24:41.971Z,52.10
2018-06-10T13:25:46.919Z,52.20
2018-06-10T13:26:52.068Z,52.20
2018-06-10T13:27:56.962Z,52.20
2018-06-10T13:29:01.665Z,52.20
2018-06-10T13:30:06.742Z,52.20
2018-06-10T13:31:11.830Z,52.20
2018-06-10T13:32:16.693Z,52.20
2018-06-10T13:33:21.728Z,52.20
2018-06-10T13:34:26.957Z,52.40
2018-06-10T13:35:32.060Z,52.30
2018-06-10T13:36:36.993Z,52.40
2018-06-10T13:37:41.906Z,52.50
2018-06-10T13:38:46.875Z,52.60
2018-06-10T13:39:52.026Z,52.60
2018-06-10T13:40:57.006Z,52.60
2018-06-10T13:42:01.674Z,52.70
2018-06-10T13:43:06.823Z,52.80
2018-06-10T13:44:11.947Z,53.00
2018-06-10T13:45:16.857Z,53.00
2018-06-10T13:46:21.677Z,53.00
2018-06-10T13:47:26.818Z,53.20
2018-06-10T13:48:32.032Z,53.30
2018-06-10T13:49:36.879Z,53.30
2018-06-10T13:50:41.950Z,53.40
2018-06-10T13:51:47.029Z,53.20
2018-06-10T13:52:51.761Z,53.30
2018-06-10T13:53:56.822Z,53.30
2018-06-10T13:55:01.503Z,53.20
2018-06-10T13:56:06.599Z,53.10
2018-06-10T13:57:11.582Z,53.10